createdAt,value
2018-12-13T00:00:28.979Z,22.73
2018-12-13T00:02:57.601Z,23.83
2018-12-13T00:05:26.210Z,23.73
2018-12-13T00:07:54.851Z,27.27
2018-12-13T00:10:23.501Z,19.67
2018-12-13T00:12:52.158Z,24.67
2018-12-13T00:15:26.043Z,23.17
2018-12-13T00:17:54.669Z,22.73
2018-12-13T00:20:23.319Z,18.80
2018-12-13T00:22:52.030Z,21.87
2018-12-13T00:25:20.707Z,22.43
2018-12-13T00:27:49.355Z,24.30
2018-12-13T00:30:17.991Z,21.80
2018-12-13T00:32:46.608Z,24.40
2018-12-13T00:35:15.259Z,26.43
2018-12-13T00:37:43.887Z,22.93
2018-12-13T00:40:12.556Z,23.90
2018-12-13T00:42:41.205Z,28.30
2018-12-13T00:45:09.886Z,27.73
2018-12-13T00:47:38.492Z,29.30
2018-12-13T00:50:07.404Z,22.13
2018-12-13T00:52:36.087Z,27.73
2018-12-13T00:55:04.727Z,24.33
2018-12-13T00:57:33.345Z,25.37
2018-12-13T01:00:01.979Z,38.03
2018-12-13T01:02:30.628Z,28.60
2018-12-13T01:04:59.280Z,38.30
2018-12-13T01:07:28.691Z,31.13
2018-12-13T01:09:57.493Z,30.93
2018-12-13T01:12:26.291Z,26.87
2018-12-13T01:14:54.900Z,26.33
2018-12-13T01:17:23.524Z,28.03
2018-12-13T01:19:52.135Z,27.27
2018-12-13T01:22:20.771Z,28.00
2018-12-13T01:24:49.415Z,31.37
2018-12-13T01:27:18.091Z,32.00
2018-12-13T01:29:46.718Z,30.13
2018-12-13T01:32:15.396Z,29.90
2018-12-13T01:34:44.022Z,28.03
2018-12-13T01:37:12.702Z,26.03
2018-12-13T01:39:41.331Z,30.93
2018-12-13T01:42:09.975Z,26.50
2018-12-13T01:44:38.579Z,23.20
2018-12-13T01:47:07.184Z,26.47
2018-12-13T01:49:35.839Z,21.37
2018-12-13T01:52:04.468Z,21.07
2018-12-13T01:54:33.072Z,19.93
2018-12-13T01:57:01.688Z,22.07
2018-12-13T01:59:30.311Z,26.33
2018-12-13T02:01:58.959Z,27.77
2018-12-13T02:04:27.603Z,28.03
2018-12-13T02:06:58.850Z,25.57
2018-12-13T02:09:26.892Z,20.40
2018-12-13T02:11:55.567Z,24.90
2018-12-13T02:14:24.284Z,23.73
2018-12-13T02:16:52.914Z,19.90
2018-12-13T02:19:21.670Z,20.33
2018-12-13T02:21:50.315Z,22.93
2018-12-13T02:24:18.969Z,23.53
2018-12-13T02:26:47.612Z,21.77
2018-12-13T02:29:16.265Z,28.53
2018-12-13T02:31:44.897Z,32.57
2018-12-13T02:34:13.523Z,23.97
2018-12-13T02:36:42.172Z,25.83
2018-12-13T02:39:10.809Z,27.33
2018-12-13T02:41:39.448Z,30.93
2018-12-13T02:44:10.097Z,28.57
2018-12-13T02:46:38.693Z,24.83
2018-12-13T02:49:08.499Z,28.60
2018-12-13T02:51:37.157Z,28.83
2018-12-13T02:54:05.949Z,29.20
2018-12-13T02:56:34.583Z,25.90
2018-12-13T02:59:03.254Z,26.87
2018-12-13T03:01:31.936Z,21.53
2018-12-13T03:04:00.566Z,25.03
2018-12-13T03:06:29.204Z,16.00
2018-12-13T03:08:57.836Z,18.80
2018-12-13T03:11:26.468Z,19.37
2018-12-13T03:13:55.130Z,19.60
2018-12-13T03:16:23.751Z,18.87
2018-12-13T03:18:53.423Z,19.10
2018-12-13T03:21:22.034Z,16.77
2018-12-13T03:23:51.199Z,21.10
2018-12-13T03:26:19.862Z,19.93
2018-12-13T03:28:48.515Z,16.20
2018-12-13T03:31:17.137Z,15.87
2018-12-13T03:33:45.775Z,18.03
2018-12-13T03:36:14.412Z,16.53
2018-12-13T03:38:43.093Z,19.67
2018-12-13T03:41:11.711Z,15.30
2018-12-13T03:43:40.321Z,15.00
2018-12-13T03:46:09.035Z,18.77
2018-12-13T03:48:37.624Z,16.27
2018-12-13T03:51:06.281Z,18.73
2018-12-13T03:53:34.878Z,21.07
2018-12-13T03:56:03.520Z,12.83
2018-12-13T03:58:32.171Z,13.90
2018-12-13T04:01:00.784Z,15.37
2018-12-13T04:03:29.416Z,15.60
2018-12-13T04:05:58.057Z,14.93
2018-12-13T04:08:26.655Z,14.53
2018-12-13T04:10:55.295Z,14.77
2018-12-13T04:13:23.907Z,12.97
2018-12-13T04:15:52.584Z,12.87
2018-12-13T04:18:21.231Z,13.63
2018-12-13T04:20:49.892Z,14.50
2018-12-13T04:23:21.172Z,15.23
2018-12-13T04:25:49.769Z,12.60
2018-12-13T04:28:18.391Z,15.83
2018-12-13T04:30:47.060Z,14.30
2018-12-13T04:33:15.690Z,13.30
2018-12-13T04:35:44.348Z,12.40
2018-12-13T04:38:12.972Z,14.40
2018-12-13T04:40:41.591Z,13.07
2018-12-13T04:43:10.193Z,15.33
2018-12-13T04:45:38.811Z,11.90
2018-12-13T04:48:07.420Z,16.10
2018-12-13T04:50:36.109Z,12.60
2018-12-13T04:53:04.784Z,13.93
2018-12-13T04:55:33.396Z,12.17
2018-12-13T04:58:02.041Z,12.83
2018-12-13T05:00:30.678Z,14.93
2018-12-13T05:02:59.343Z,17.20
2018-12-13T05:05:27.931Z,12.77
2018-12-13T05:07:56.585Z,12.67
2018-12-13T05:10:55.948Z,13.10
2018-12-13T05:13:24.584Z,12.10
2018-12-13T05:15:53.204Z,12.93
2018-12-13T05:18:21.864Z,12.10
2018-12-13T05:20:50.587Z,14.03
2018-12-13T05:23:19.199Z,11.93
2018-12-13T05:25:47.827Z,14.20
2018-12-13T05:28:16.504Z,16.50
2018-12-13T05:30:45.426Z,13.70
2018-12-13T05:33:14.028Z,11.90
2018-12-13T05:35:42.687Z,12.73
2018-12-13T05:38:11.275Z,11.83
2018-12-13T05:40:39.867Z,14.63
2018-12-13T05:43:08.454Z,15.87
2018-12-13T05:45:37.030Z,12.27
2018-12-13T05:48:05.623Z,11.37
2018-12-13T05:50:34.196Z,11.87
2018-12-13T05:53:02.791Z,15.87
2018-12-13T05:55:31.412Z,13.03
2018-12-13T05:58:00.016Z,10.70
2018-12-13T06:00:29.363Z,12.00
2018-12-13T06:02:57.947Z,9.40
2018-12-13T06:05:26.531Z,13.40
2018-12-13T06:07:55.272Z,10.23
2018-12-13T06:10:23.996Z,10.67
2018-12-13T06:12:52.595Z,10.97
2018-12-13T06:15:21.182Z,11.33
2018-12-13T06:17:49.783Z,12.03
2018-12-13T06:20:18.399Z,10.30
2018-12-13T06:22:46.990Z,11.10
2018-12-13T06:25:15.580Z,12.03
2018-12-13T06:27:44.160Z,14.60
2018-12-13T06:30:12.763Z,13.40
2018-12-13T06:32:41.344Z,16.87
2018-12-13T06:35:09.931Z,15.63
2018-12-13T06:37:38.519Z,15.73
2018-12-13T06:40:07.277Z,18.43
2018-12-13T06:42:35.876Z,13.90
2018-12-13T06:45:04.839Z,11.37
2018-12-13T06:47:33.411Z,12.30
2018-12-13T06:50:01.999Z,11.07
2018-12-13T06:52:30.816Z,12.03
2018-12-13T06:54:59.512Z,9.63
2018-12-13T06:57:28.165Z,11.33
2018-12-13T06:59:56.955Z,11.20
2018-12-13T07:02:28.501Z,10.70
2018-12-13T07:04:57.091Z,11.20
2018-12-13T07:07:25.673Z,14.80
2018-12-13T07:09:54.243Z,13.17
2018-12-13T07:12:22.830Z,16.53
2018-12-13T07:14:51.832Z,13.90
2018-12-13T07:17:20.803Z,16.30
2018-12-13T07:19:49.488Z,19.53
2018-12-13T07:22:18.175Z,16.90
2018-12-13T07:24:46.883Z,15.63
2018-12-13T07:27:15.876Z,12.40
2018-12-13T07:29:45.298Z,13.97
2018-12-13T07:32:14.291Z,12.20
2018-12-13T07:34:43.165Z,15.33
2018-12-13T07:37:12.079Z,15.77
2018-12-13T07:39:40.746Z,16.03
2018-12-13T07:42:09.375Z,18.33
2018-12-13T07:44:37.967Z,17.17
2018-12-13T07:47:06.559Z,20.73
2018-12-13T07:49:35.527Z,18.13
2018-12-13T07:52:04.127Z,22.70
2018-12-13T07:54:32.757Z,18.47
2018-12-13T07:57:01.355Z,19.17
2018-12-13T07:59:30.336Z,10.07
2018-12-13T08:01:59.106Z,12.83
2018-12-13T08:04:27.923Z,8.93
2018-12-13T08:06:56.512Z,10.47
2018-12-13T08:09:25.107Z,8.87
2018-12-13T08:11:54.070Z,11.23
2018-12-13T08:14:22.979Z,11.63
2018-12-13T08:16:52.124Z,9.77
2018-12-13T08:19:20.758Z,10.37
2018-12-13T08:21:49.448Z,12.47
2018-12-13T08:24:18.759Z,10.90
2018-12-13T08:26:47.372Z,11.17
2018-12-13T08:29:15.984Z,13.60
2018-12-13T08:31:44.586Z,14.33
2018-12-13T08:34:13.222Z,12.57
2018-12-13T08:36:41.903Z,13.93
2018-12-13T08:39:10.533Z,11.33
2018-12-13T08:41:39.147Z,14.17
2018-12-13T08:44:07.764Z,14.97
2018-12-13T08:46:36.817Z,14.73
2018-12-13T08:49:05.737Z,10.53
2018-12-13T08:51:34.383Z,12.27
2018-12-13T08:54:03.019Z,15.60
2018-12-13T08:56:31.686Z,15.27
2018-12-13T08:59:00.307Z,14.33
2018-12-13T09:01:28.991Z,14.10
2018-12-13T09:03:57.612Z,14.70
2018-12-13T09:06:26.279Z,14.87
2018-12-13T09:08:54.939Z,13.73
2018-12-13T09:11:23.552Z,13.20
2018-12-13T09:13:52.201Z,16.90
2018-12-13T09:16:20.927Z,15.83
2018-12-13T09:18:49.557Z,13.07
2018-12-13T09:21:18.175Z,13.97
2018-12-13T09:23:46.786Z,18.27
2018-12-13T09:26:15.565Z,14.67
2018-12-13T09:28:44.191Z,16.50
2018-12-13T09:31:12.799Z,20.83
2018-12-13T09:33:41.436Z,20.97
2018-12-13T09:36:10.103Z,19.73
2018-12-13T09:38:39.932Z,13.83
2018-12-13T09:41:08.773Z,14.10
2018-12-13T09:43:37.410Z,12.47
2018-12-13T09:46:06.074Z,10.40
2018-12-13T09:48:34.713Z,14.47
2018-12-13T09:51:03.375Z,14.30
2018-12-13T09:53:32.026Z,11.70
2018-12-13T09:56:00.643Z,13.10
2018-12-13T09:58:29.260Z,11.37
2018-12-13T10:00:57.884Z,10.70
2018-12-13T10:03:26.514Z,13.77
2018-12-13T10:05:55.148Z,11.27
2018-12-13T10:08:23.763Z,11.67
2018-12-13T10:10:52.410Z,11.37
2018-12-13T10:13:21.024Z,11.57
2018-12-13T10:15:49.711Z,14.17
2018-12-13T10:18:18.348Z,12.83
2018-12-13T10:20:47.023Z,10.27
2018-12-13T10:23:15.690Z,10.60
2018-12-13T10:25:44.347Z,12.10
2018-12-13T10:28:13.028Z,10.77
2018-12-13T10:30:41.635Z,13.03
2018-12-13T10:33:10.309Z,12.67
2018-12-13T10:35:38.989Z,13.90
2018-12-13T10:38:07.613Z,12.40
2018-12-13T10:40:36.236Z,9.80
2018-12-13T10:43:04.897Z,10.33
2018-12-13T10:45:33.531Z,11.10
2018-12-13T10:48:02.163Z,11.00
2018-12-13T10:50:30.795Z,11.77
2018-12-13T10:52:59.394Z,14.53
2018-12-13T10:55:28.039Z,7.90
2018-12-13T10:57:56.705Z,10.77
2018-12-13T11:00:30.740Z,8.33
2018-12-13T11:03:15.604Z,10.00
2018-12-13T11:05:44.235Z,9.33
2018-12-13T11:08:12.855Z,11.50
2018-12-13T11:10:41.562Z,14.63
2018-12-13T11:13:10.195Z,13.57
2018-12-13T11:15:39.897Z,11.43
2018-12-13T11:18:09.075Z,16.50
2018-12-13T11:20:37.720Z,11.80
2018-12-13T11:23:06.356Z,10.53
2018-12-13T11:25:34.977Z,10.93
2018-12-13T11:30:26.073Z,11.50
2018-12-13T11:32:54.726Z,14.90
2018-12-13T11:35:23.351Z,15.50
2018-12-13T11:37:51.973Z,12.60
2018-12-13T11:40:20.625Z,11.60
2018-12-13T11:42:49.267Z,9.93
2018-12-13T11:45:17.885Z,12.17
2018-12-13T11:47:46.520Z,11.67
2018-12-13T11:50:15.190Z,12.73
2018-12-13T11:52:43.827Z,11.40
2018-12-13T11:55:21.344Z,11.10
2018-12-13T11:57:49.999Z,11.70
2018-12-13T12:00:18.609Z,12.43
2018-12-13T12:02:47.252Z,12.70
2018-12-13T12:05:15.889Z,11.37
2018-12-13T12:07:44.516Z,10.10
2018-12-13T12:10:13.276Z,15.27
2018-12-13T12:12:41.892Z,9.90
2018-12-13T12:15:10.728Z,14.17
2018-12-13T12:17:39.387Z,14.80
2018-12-13T12:20:08.841Z,10.93
2018-12-13T12:22:37.503Z,12.53
2018-12-13T12:25:06.924Z,12.20
2018-12-13T12:27:35.556Z,11.33
2018-12-13T12:30:04.794Z,12.90
2018-12-13T12:32:33.420Z,10.87
2018-12-13T12:35:02.054Z,9.83
2018-12-13T12:37:30.730Z,11.83
2018-12-13T12:39:59.339Z,17.97
2018-12-13T12:42:28.031Z,11.43
2018-12-13T12:44:56.659Z,11.93
2018-12-13T12:47:25.643Z,13.17
2018-12-13T12:49:54.259Z,12.13
2018-12-13T12:52:22.908Z,12.97
2018-12-13T12:54:51.539Z,11.57
2018-12-13T12:57:20.179Z,12.37
2018-12-13T12:59:48.800Z,12.83
2018-12-13T13:02:17.448Z,14.83
2018-12-13T13:04:46.056Z,13.30
2018-12-13T13:07:14.692Z,13.20
2018-12-13T13:09:43.323Z,14.60
2018-12-13T13:12:11.938Z,12.07
2018-12-13T13:14:40.550Z,14.23
2018-12-13T13:17:09.153Z,13.23
2018-12-13T13:19:37.817Z,11.93
2018-12-13T13:22:06.487Z,13.27
2018-12-13T13:24:35.148Z,14.17
2018-12-13T13:27:03.788Z,13.27
2018-12-13T13:29:32.419Z,16.50
2018-12-13T13:32:01.034Z,12.67
2018-12-13T13:34:29.632Z,14.83
2018-12-13T13:36:58.250Z,16.83
2018-12-13T13:39:31.467Z,14.00
2018-12-13T13:41:57.523Z,16.00
2018-12-13T13:44:30.569Z,14.00
2018-12-13T13:46:59.199Z,14.37
2018-12-13T13:49:27.804Z,14.60
2018-12-13T13:51:56.535Z,14.13
2018-12-13T13:54:25.176Z,13.73
2018-12-13T13:56:53.806Z,14.73
2018-12-13T13:59:22.458Z,16.17
2018-12-13T14:01:51.072Z,15.17
2018-12-13T14:04:19.701Z,16.97
2018-12-13T14:06:48.338Z,17.10
2018-12-13T14:09:17.025Z,16.63
2018-12-13T14:11:45.636Z,14.77
2018-12-13T14:14:14.266Z,18.40
2018-12-13T14:16:42.885Z,16.30
2018-12-13T14:19:11.504Z,16.07
2018-12-13T14:21:40.132Z,16.73
2018-12-13T14:24:08.756Z,18.77
2018-12-13T14:26:37.416Z,17.30
2018-12-13T14:29:06.055Z,17.03
2018-12-13T14:31:34.779Z,17.67
2018-12-13T14:34:03.499Z,16.60
2018-12-13T14:36:32.143Z,16.87
2018-12-13T14:39:00.764Z,15.87
2018-12-13T14:41:29.382Z,18.40
2018-12-13T14:43:58.031Z,20.43
2018-12-13T14:46:26.651Z,14.87
2018-12-13T14:48:55.299Z,15.73
2018-12-13T14:51:23.949Z,19.83
2018-12-13T14:53:52.575Z,13.80
2018-12-13T14:56:21.192Z,18.33
2018-12-13T14:58:50.720Z,16.97
2018-12-13T15:01:19.355Z,13.80
2018-12-13T15:03:48.654Z,17.13
2018-12-13T15:06:17.503Z,14.40
2018-12-13T15:08:46.125Z,15.00
2018-12-13T15:11:14.737Z,13.03
2018-12-13T15:13:43.353Z,10.80
2018-12-13T15:16:12.000Z,13.43
2018-12-13T15:18:40.607Z,12.53
2018-12-13T15:21:09.215Z,12.30
2018-12-13T15:23:37.839Z,16.87
2018-12-13T15:26:06.466Z,15.63
2018-12-13T15:28:35.084Z,16.43
2018-12-13T15:31:03.708Z,15.60
2018-12-13T15:33:32.330Z,13.77
2018-12-13T15:36:01.030Z,11.43
2018-12-13T15:38:29.643Z,12.30
2018-12-13T15:40:58.272Z,10.83
2018-12-13T15:43:26.915Z,12.40
2018-12-13T15:45:55.516Z,13.53
2018-12-13T15:48:24.156Z,10.20
2018-12-13T15:50:52.779Z,10.33
2018-12-13T15:53:21.403Z,12.93
2018-12-13T15:55:50.039Z,13.77
2018-12-13T15:58:18.731Z,17.10
2018-12-13T16:00:47.366Z,12.57
2018-12-13T16:03:16.007Z,12.47
2018-12-13T16:05:44.633Z,15.33
2018-12-13T16:08:13.227Z,13.00
2018-12-13T16:10:42.666Z,12.67
2018-12-13T16:13:11.515Z,15.73
2018-12-13T16:15:40.193Z,14.23
2018-12-13T16:18:08.824Z,14.60
2018-12-13T16:20:38.520Z,17.73
2018-12-13T16:23:07.138Z,16.60
2018-12-13T16:25:35.981Z,14.87
2018-12-13T16:28:04.658Z,13.83
2018-12-13T16:30:33.379Z,17.67
2018-12-13T16:33:02.080Z,13.73
2018-12-13T16:35:30.693Z,12.60
2018-12-13T16:37:59.447Z,14.07
2018-12-13T16:40:28.081Z,14.60
2018-12-13T16:42:56.730Z,13.13
2018-12-13T16:45:25.388Z,15.70
2018-12-13T16:47:54.033Z,15.40
2018-12-13T16:50:22.664Z,12.87
2018-12-13T16:52:51.475Z,12.40
2018-12-13T16:55:20.113Z,14.87
2018-12-13T16:57:48.747Z,15.37
2018-12-13T17:00:17.509Z,14.47
2018-12-13T17:02:46.140Z,13.70
2018-12-13T17:05:14.744Z,14.40
2018-12-13T17:07:43.358Z,17.13
2018-12-13T17:10:16.796Z,14.33
2018-12-13T17:12:42.661Z,13.57
2018-12-13T17:15:11.267Z,21.40
2018-12-13T17:17:39.884Z,16.83
2018-12-13T17:20:08.511Z,19.20
2018-12-13T17:22:37.190Z,17.70
2018-12-13T17:25:06.387Z,12.73
2018-12-13T17:27:35.023Z,13.63
2018-12-13T17:30:04.464Z,17.43
2018-12-13T17:32:33.275Z,19.03
2018-12-13T17:35:01.918Z,15.07
2018-12-13T17:37:30.538Z,14.60
2018-12-13T17:39:59.203Z,15.53
2018-12-13T17:42:27.836Z,16.53
2018-12-13T17:44:56.469Z,15.83
2018-12-13T17:47:25.104Z,17.87
2018-12-13T17:49:53.739Z,15.73
2018-12-13T17:52:22.411Z,15.17
2018-12-13T17:54:51.064Z,14.93
2018-12-13T17:57:19.707Z,15.93
2018-12-13T17:59:48.339Z,16.70
2018-12-13T18:02:16.963Z,15.63
2018-12-13T18:04:45.615Z,16.50
2018-12-13T18:07:14.295Z,15.07
2018-12-13T18:09:42.940Z,16.93
2018-12-13T18:12:11.575Z,16.30
2018-12-13T18:14:40.264Z,19.17
2018-12-13T18:17:08.927Z,13.90
2018-12-13T18:19:37.571Z,13.23
2018-12-13T18:22:06.269Z,14.23
2018-12-13T18:24:34.904Z,18.00
2018-12-13T18:27:03.573Z,13.43
2018-12-13T18:29:32.214Z,16.70
2018-12-13T18:32:00.851Z,21.93
2018-12-13T18:34:29.510Z,20.87
2018-12-13T18:36:58.247Z,22.57
2018-12-13T18:39:26.892Z,25.03
2018-12-13T18:41:55.530Z,18.90
2018-12-13T18:44:24.195Z,23.20
2018-12-13T18:46:52.808Z,26.07
2018-12-13T18:49:21.455Z,17.50
2018-12-13T18:51:50.072Z,14.27
2018-12-13T18:54:18.712Z,18.87
2018-12-13T18:56:47.337Z,16.03
2018-12-13T18:59:17.044Z,17.60
2018-12-13T19:01:45.662Z,20.70
2018-12-13T19:04:14.267Z,28.07
2018-12-13T19:06:42.936Z,22.53
2018-12-13T19:09:11.638Z,22.10
2018-12-13T19:11:40.249Z,18.63
2018-12-13T19:14:08.884Z,14.90
2018-12-13T19:16:37.515Z,20.13
2018-12-13T19:19:06.133Z,22.80
2018-12-13T19:21:34.787Z,20.50
2018-12-13T19:24:03.427Z,18.57
2018-12-13T19:26:32.039Z,17.03
2018-12-13T19:29:00.698Z,16.57
2018-12-13T19:31:33.236Z,22.27
2018-12-13T19:34:02.842Z,22.03
2018-12-13T19:36:31.519Z,19.93
2018-12-13T19:39:00.163Z,18.73
2018-12-13T19:41:28.808Z,22.53
2018-12-13T19:44:19.460Z,20.07
2018-12-13T19:46:48.263Z,18.23
2018-12-13T19:49:17.867Z,19.37
2018-12-13T19:52:07.214Z,16.07
2018-12-13T19:54:43.723Z,18.13
2018-12-13T19:57:13.468Z,18.63
2018-12-13T19:59:42.240Z,15.17
2018-12-13T20:02:18.854Z,13.57
2018-12-13T20:05:15.146Z,19.47
2018-12-13T20:07:45.370Z,19.57
2018-12-13T20:10:14.035Z,18.90
2018-12-13T20:12:42.703Z,15.70
2018-12-13T20:15:24.170Z,18.93
2018-12-13T20:17:52.303Z,14.33
2018-12-13T20:20:20.944Z,19.67
2018-12-13T20:22:53.840Z,17.53
2018-12-13T20:25:22.495Z,12.83
2018-12-13T20:27:51.136Z,12.17
2018-12-13T20:30:19.825Z,15.17
2018-12-13T20:32:48.483Z,16.73
2018-12-13T20:35:18.960Z,18.27
2018-12-13T20:37:47.576Z,15.83
2018-12-13T20:40:16.211Z,12.13
2018-12-13T20:42:44.849Z,15.63
2018-12-13T20:45:13.559Z,16.33
2018-12-13T20:47:42.200Z,14.17
2018-12-13T20:50:10.855Z,12.80
2018-12-13T20:52:39.604Z,15.23
2018-12-13T20:55:10.875Z,12.00
2018-12-13T20:57:42.618Z,15.00
2018-12-13T21:00:17.050Z,14.10
2018-12-13T21:02:49.119Z,13.63
2018-12-13T21:05:17.736Z,15.13
2018-12-13T21:07:53.210Z,12.47
2018-12-13T21:10:22.848Z,13.40
2018-12-13T21:12:52.671Z,18.77
2018-12-13T21:15:21.772Z,11.47
2018-12-13T21:17:50.683Z,12.77
2018-12-13T21:20:21.016Z,11.67
2018-12-13T21:22:49.630Z,10.87
2018-12-13T21:25:18.309Z,11.53
2018-12-13T21:27:46.954Z,11.50
2018-12-13T21:30:15.794Z,11.87
2018-12-13T21:32:44.433Z,10.03
2018-12-13T21:35:13.063Z,10.93
2018-12-13T21:37:41.683Z,10.53
2018-12-13T21:40:10.302Z,12.43
2018-12-13T21:42:38.979Z,11.90
2018-12-13T21:45:07.801Z,11.30
2018-12-13T21:47:36.416Z,9.63
2018-12-13T21:50:05.764Z,10.57
2018-12-13T21:52:34.389Z,10.10
2018-12-13T21:55:03.238Z,10.27
2018-12-13T21:57:31.855Z,10.50
2018-12-13T22:00:00.464Z,10.20
2018-12-13T22:02:29.085Z,8.67
2018-12-13T22:04:57.683Z,11.73
2018-12-13T22:07:26.283Z,13.03
2018-12-13T22:09:54.879Z,12.63
2018-12-13T22:12:23.519Z,11.87
2018-12-13T22:14:52.123Z,11.23
2018-12-13T22:17:20.751Z,10.50
2018-12-13T22:19:49.947Z,9.83
2018-12-13T22:22:18.599Z,11.00
2018-12-13T22:24:47.219Z,10.00
2018-12-13T22:27:15.838Z,10.57
2018-12-13T22:29:44.610Z,9.90
2018-12-13T22:32:13.229Z,9.57
2018-12-13T22:34:42.124Z,10.10
2018-12-13T22:37:11.210Z,9.70
2018-12-13T22:39:39.868Z,9.53
2018-12-13T22:42:08.094Z,21.27
2018-12-13T22:44:36.698Z,8.37
2018-12-13T22:47:05.431Z,10.30
2018-12-13T22:49:34.044Z,9.27
2018-12-13T22:52:02.728Z,10.20
2018-12-13T22:54:31.368Z,8.33
2018-12-13T22:57:00.065Z,7.00
2018-12-13T22:59:28.682Z,9.83
2018-12-13T23:01:57.335Z,10.77
2018-12-13T23:04:25.935Z,10.43
2018-12-13T23:06:54.559Z,8.67
2018-12-13T23:09:23.168Z,7.67
2018-12-13T23:11:51.771Z,9.83
2018-12-13T23:14:20.407Z,11.97
2018-12-13T23:16:49.039Z,10.03
2018-12-13T23:19:17.683Z,8.53
2018-12-13T23:21:46.299Z,8.90
2018-12-13T23:24:14.927Z,10.10
2018-12-13T23:26:43.544Z,11.10
2018-12-13T23:29:12.196Z,9.67
2018-12-13T23:31:40.827Z,9.87
2018-12-13T23:34:09.451Z,9.37
2018-12-13T23:36:38.120Z,9.03
2018-12-13T23:39:06.785Z,9.40
2018-12-13T23:41:39.209Z,7.77
2018-12-13T23:44:06.126Z,8.37
2018-12-13T23:46:34.751Z,8.97
2018-12-13T23:49:03.507Z,10.00
2018-12-13T23:51:32.140Z,11.67
2018-12-13T23:54:00.795Z,8.27
2018-12-13T23:56:29.391Z,11.33
2018-12-13T23:58:58.425Z,8.10
